Time;durP1;ratioP1;P1;durP2;ratioP2;P2;SDS_P1;SDS_P2;PMS_P1;PMS_P2;Temp;Humidity;BMP_temperature;BMP_pressure;BME280_temperature;BME280_humidity;BME280_pressure;Samples;Min_cycle;Max_cycle;Signal;HPM_P1;HPM_P2
2022/02/24 00:01:21;;;;;;;2.75;1.15;;;;;;;11.19;91.58;100713.38;2095452;28;20647;-74
2022/02/24 00:02:44;;;;;;;2.72;1.45;;;;;;;11.22;91.36;100710.78;2101180;28;20049;-74
2022/02/24 00:04:06;;;;;;;3.47;1.63;;;;;;;11.22;90.78;100701.97;2104259;28;20608;-74
2022/02/24 00:05:31;;;;;;;2.42;0.90;;;;;;;11.21;90.69;100698.44;2095656;28;20101;-74
2022/02/24 00:06:53;;;;;;;1.83;0.38;;;;;;;11.16;90.82;100703.66;2093376;28;20547;-75
2022/02/24 00:08:16;;;;;;;2.10;0.32;;;;;;;11.14;90.92;100704.50;2101753;28;20120;-74
2022/02/24 00:09:38;;;;;;;1.17;0.60;;;;;;;11.14;90.70;100702.75;2096471;28;20057;-74
2022/02/24 00:11:01;;;;;;;1.33;0.63;;;;;;;11.14;90.78;100702.75;2095652;28;20044;-75
2022/02/24 00:12:23;;;;;;;0.55;0.40;;;;;;;11.13;90.25;100700.09;2098449;28;20052;-75
2022/02/24 00:13:46;;;;;;;0.65;0.20;;;;;;;11.12;90.76;100700.97;2087484;28;20402;-74
2022/02/24 00:15:10;;;;;;;1.00;0.40;;;;;;;11.16;90.44;100698.38;2092845;28;20053;-74
2022/02/24 00:16:31;;;;;;;1.95;0.30;;;;;;;11.16;90.63;100700.13;2097996;28;20094;-75
2022/02/24 00:17:55;;;;;;;2.60;0.80;;;;;;;11.14;90.67;100702.75;2095447;28;20202;-75
2022/02/24 00:19:17;;;;;;;3.22;1.08;;;;;;;11.15;90.92;100701.91;2095460;28;20053;-74
2022/02/24 00:20:41;;;;;;;13.38;5.95;;;;;;;11.16;91.17;100698.38;2093116;28;20060;-74
2022/02/24 00:22:03;;;;;;;12.82;5.18;;;;;;;11.17;90.97;100708.06;2094270;28;20036;-74
2022/02/24 00:23:27;;;;;;;10.52;4.80;;;;;;;11.17;90.71;100702.78;2112241;28;20117;-74
2022/02/24 00:24:49;;;;;;;7.82;3.55;;;;;;;11.17;91.22;100697.50;2103972;28;20084;-74
2022/02/24 00:26:12;;;;;;;7.45;2.35;;;;;;;11.18;91.33;100701.03;2092503;28;20092;-74
2022/02/24 00:27:35;;;;;;;2.38;1.33;;;;;;;11.22;90.81;100700.22;2103105;27;20230;-75
2022/02/24 00:28:56;;;;;;;2.63;1.17;;;;;;;11.21;91.42;100713.41;2098568;28;20048;-74
2022/02/24 00:30:19;;;;;;;8.77;4.32;;;;;;;11.14;90.56;100700.13;2095390;28;20051;-74
2022/02/24 00:31:40;;;;;;;5.60;2.40;;;;;;;11.08;90.83;100705.34;2095495;28;20143;-74
2022/02/24 00:33:03;;;;;;;3.80;1.83;;;;;;;11.10;90.56;100708.84;2100879;28;20040;-74
2022/02/24 00:34:24;;;;;;;3.47;1.85;;;;;;;11.10;91.12;100706.22;2112178;28;20432;-74
2022/02/24 00:35:48;;;;;;;6.43;2.40;;;;;;;11.12;90.83;100708.88;2106502;28;20067;-74
2022/02/24 00:37:13;;;;;;;5.55;3.03;;;;;;;11.10;90.63;100705.31;2097510;28;20052;-74
2022/02/24 00:38:36;;;;;;;7.93;3.63;;;;;;;11.14;91.11;100697.47;2097532;28;20037;-74
2022/02/24 00:39:58;;;;;;;2.25;1.38;;;;;;;11.16;90.77;100698.38;2109765;28;20059;-75
2022/02/24 00:41:21;;;;;;;2.05;0.98;;;;;;;11.17;90.96;100692.22;2097677;28;20608;-74
2022/02/24 00:42:45;;;;;;;4.47;0.98;;;;;;;11.19;91.12;100702.81;2095595;28;20058;-74
2022/02/24 00:44:06;;;;;;;3.15;1.25;;;;;;;11.22;90.95;100696.69;2095832;28;20056;-74
2022/02/24 00:45:30;;;;;;;3.10;1.20;;;;;;;11.23;91.06;100701.06;2101419;28;20048;-74
2022/02/24 00:46:51;;;;;;;3.15;1.00;;;;;;;11.21;91.05;100706.38;2095423;28;20097;-74
2022/02/24 00:48:13;;;;;;;1.67;0.70;;;;;;;11.17;90.72;100705.44;2100920;28;20082;-75
2022/02/24 00:49:36;;;;;;;0.95;0.60;;;;;;;11.16;91.18;100701.00;2104740;28;20035;-74
2022/02/24 00:50:59;;;;;;;2.10;0.80;;;;;;;11.18;90.53;100701.91;2103619;28;20059;-74
2022/02/24 00:52:21;;;;;;;1.20;0.70;;;;;;;11.16;91.22;100706.28;2092575;28;20087;-74
2022/02/24 00:53:43;;;;;;;6.05;3.83;;;;;;;11.14;90.92;100704.50;2095201;28;20075;-74
2022/02/24 00:55:07;;;;;;;7.00;4.70;;;;;;;11.13;90.77;100705.38;2102638;28;20040;-75
2022/02/24 00:56:28;;;;;;;6.10;4.43;;;;;;;11.17;90.96;100713.34;2103982;28;20054;-74
2022/02/24 00:57:50;;;;;;;4.18;0.80;;;;;;;11.15;90.40;100709.81;2089631;28;20049;-74
2022/02/24 00:59:12;;;;;;;2.55;0.88;;;;;;;11.16;90.50;100714.22;2092653;28;20505;-74
2022/02/24 01:00:35;;;;;;;1.33;0.85;;;;;;;11.14;90.94;100705.41;2109343;28;20118;-74
2022/02/24 01:01:57;;;;;;;3.03;0.45;;;;;;;11.11;90.18;100712.38;2101949;28;20085;-74
2022/02/24 01:03:20;;;;;;;1.75;0.45;;;;;;;11.09;90.31;100707.06;2092082;28;20121;-75
2022/02/24 01:04:43;;;;;;;2.50;0.73;;;;;;;11.09;90.19;100719.44;2095574;28;20044;-74
2022/02/24 01:06:05;;;;;;;0.73;0.30;;;;;;;11.11;90.39;100717.69;2102029;28;20047;-75
2022/02/24 01:07:28;;;;;;;0.20;0.17;;;;;;;11.10;90.77;100711.50;2111839;28;20552;-74
2022/02/24 01:08:51;;;;;;;1.65;0.60;;;;;;;11.13;90.82;100708.03;2106445;28;20127;-74
2022/02/24 01:10:13;;;;;;;1.88;0.65;;;;;;;11.14;90.48;100713.34;2102942;28;20044;-74
2022/02/24 01:11:36;;;;;;;2.78;0.70;;;;;;;11.11;90.73;100708.00;2103590;28;20091;-74
2022/02/24 01:12:59;;;;;;;2.35;0.70;;;;;;;11.09;91.26;100708.88;2103859;28;20044;-74
2022/02/24 01:14:22;;;;;;;0.80;0.30;;;;;;;11.07;90.93;100706.19;2094991;28;20052;-75
2022/02/24 01:15:43;;;;;;;0.00;0.00;;;;;;;11.06;90.60;100711.44;2092693;28;20041;-74
2022/02/24 01:17:06;;;;;;;0.00;0.00;;;;;;;11.04;90.52;100708.78;2100804;28;20044;-74
2022/02/24 01:18:29;;;;;;;1.63;0.22;;;;;;;11.05;90.91;100707.03;2095745;28;20098;-74
2022/02/24 01:19:51;;;;;;;1.55;0.13;;;;;;;11.05;90.26;100713.19;2114667;27;20058;-74
2022/02/24 01:21:14;;;;;;;0.43;0.00;;;;;;;10.99;90.74;100704.31;2101372;28;20111;-74
2022/02/24 01:22:37;;;;;;;0.28;0.20;;;;;;;10.95;90.44;100703.41;2101140;28;20036;-74
2022/02/24 01:23:59;;;;;;;0.93;0.20;;;;;;;11.01;90.57;100703.47;2103159;28;20054;-74
2022/02/24 01:25:22;;;;;;;1.98;0.30;;;;;;;11.03;91.26;100711.41;2095013;28;20643;-74
2022/02/24 01:26:45;;;;;;;0.93;0.40;;;;;;;11.05;90.98;100707.03;2086697;28;20076;-74
2022/02/24 01:28:06;;;;;;;0.45;0.30;;;;;;;11.04;90.65;100703.50;2087696;28;20140;-74
2022/02/24 01:29:29;;;;;;;2.13;0.80;;;;;;;11.01;90.56;100702.59;2099031;28;20048;-74
2022/02/24 01:30:50;;;;;;;0.85;0.30;;;;;;;10.99;91.07;100713.13;2103437;28;20544;-74
2022/02/24 01:32:13;;;;;;;1.05;0.38;;;;;;;10.97;91.00;100703.41;2117522;27;20416;-74
2022/02/24 01:33:36;;;;;;;1.50;0.30;;;;;;;10.96;90.70;100707.78;2114256;28;20031;-74
2022/02/24 01:35:01;;;;;;;0.35;0.25;;;;;;;11.00;91.39;100699.06;2111891;28;20052;-74
2022/02/24 01:36:25;;;;;;;1.02;0.28;;;;;;;11.08;90.94;100704.44;2103924;28;20572;-74
2022/02/24 01:37:46;;;;;;;6.57;4.18;;;;;;;11.12;91.36;100706.25;2097662;28;20165;-74
2022/02/24 01:39:08;;;;;;;1.48;0.50;;;;;;;11.12;91.27;100699.22;2100299;28;20066;-74
2022/02/24 01:40:31;;;;;;;1.42;0.38;;;;;;;11.12;90.88;100704.50;2101358;28;20472;-74
2022/02/24 01:41:56;;;;;;;1.42;0.40;;;;;;;11.11;90.40;100697.44;2103074;28;20043;-74
2022/02/24 01:43:20;;;;;;;1.10;0.60;;;;;;;11.13;90.44;100708.03;2089296;28;20049;-74
2022/02/24 01:44:44;;;;;;;1.30;0.20;;;;;;;11.16;90.89;100705.41;2086892;28;20041;-74
2022/02/24 01:46:06;;;;;;;0.30;0.30;;;;;;;11.17;90.13;100709.81;2084530;28;20536;-75
2022/02/24 01:47:29;;;;;;;1.42;0.50;;;;;;;11.19;90.51;100708.09;2092172;28;20044;-74
2022/02/24 01:48:51;;;;;;;0.60;0.40;;;;;;;11.18;90.69;100711.59;2090199;28;20533;-74
2022/02/24 01:50:13;;;;;;;1.13;0.63;;;;;;;11.19;90.53;100708.97;2095950;28;20049;-74
2022/02/24 01:51:38;;;;;;;1.13;0.60;;;;;;;11.16;90.77;100706.28;2100549;28;20063;-74
2022/02/24 01:53:00;;;;;;;2.63;0.60;;;;;;;11.14;89.93;100708.03;2095053;28;20107;-74
2022/02/24 01:54:23;;;;;;;1.30;0.55;;;;;;;11.14;90.18;100709.81;2101452;28;20056;-74
2022/02/24 01:55:46;;;;;;;1.23;0.13;;;;;;;11.11;90.07;100718.56;2114087;28;20061;-74
2022/02/24 01:57:10;;;;;;;1.30;0.40;;;;;;;11.07;90.30;100711.47;2111716;28;20461;-74
2022/02/24 01:58:32;;;;;;;1.50;0.25;;;;;;;11.05;89.98;100712.31;2111839;28;20043;-74
2022/02/24 01:59:55;;;;;;;0.22;0.10;;;;;;;11.05;90.08;100707.03;2093651;28;20063;-74
2022/02/24 02:01:17;;;;;;;1.58;0.20;;;;;;;11.05;90.38;100713.19;2100616;28;20036;-74
2022/02/24 02:02:40;;;;;;;0.60;0.30;;;;;;;11.06;90.44;100714.97;2104075;28;20813;-74
2022/02/24 02:04:02;;;;;;;2.33;0.30;;;;;;;11.05;90.84;100721.13;2086280;28;20136;-74
2022/02/24 02:05:24;;;;;;;1.45;0.20;;;;;;;11.07;90.61;100729.97;2098133;28;20043;-74
2022/02/24 02:06:48;;;;;;;1.25;0.20;;;;;;;11.08;90.50;100722.94;2103213;28;20052;-74
2022/02/24 02:08:11;;;;;;;0.40;0.15;;;;;;;11.03;90.81;100721.97;2089044;28;20132;-74
2022/02/24 02:09:32;;;;;;;0.73;0.35;;;;;;;11.03;90.86;100722.84;2099884;28;20114;-74
2022/02/24 02:10:56;;;;;;;0.35;0.15;;;;;;;11.02;91.47;100723.75;2103315;28;20056;-74
2022/02/24 02:12:18;;;;;;;0.32;0.30;;;;;;;11.04;91.32;100723.75;2100312;28;20100;-74
2022/02/24 02:13:41;;;;;;;1.92;0.38;;;;;;;11.02;91.05;100726.38;2114030;28;20678;-74
2022/02/24 02:15:04;;;;;;;1.48;0.68;;;;;;;11.04;91.14;100715.81;2102546;28;20072;-74
2022/02/24 02:16:27;;;;;;;1.17;0.32;;;;;;;11.05;91.09;100729.06;2104450;28;20044;-74
2022/02/24 02:17:50;;;;;;;1.92;0.40;;;;;;;11.07;91.66;100724.69;2113520;28;20138;-74
2022/02/24 02:19:13;;;;;;;0.68;0.30;;;;;;;11.09;91.59;100720.28;2097005;28;20143;-74
2022/02/24 02:20:40;;;;;;;1.00;0.35;;;;;;;11.12;91.50;100720.34;2091259;28;20494;-74
2022/02/24 02:22:01;;;;;;;2.15;0.40;;;;;;;11.05;91.88;100718.50;2086853;28;20061;-74
2022/02/24 02:23:24;;;;;;;0.52;0.30;;;;;;;11.01;91.63;100724.63;2099851;28;20039;-74
2022/02/24 02:24:59;;;;;;;1.40;0.20;;;;;;;11.01;91.46;100713.16;2096083;28;20044;-74
2022/02/24 02:26:21;;;;;;;8.93;3.72;;;;;;;10.94;91.62;100714.81;2095354;28;20070;-74
2022/02/24 02:27:45;;;;;;;0.43;0.40;;;;;;;10.94;91.26;100721.88;2092254;28;20429;-74
2022/02/24 02:29:11;;;;;;;0.80;0.40;;;;;;;10.93;91.72;100715.69;2096587;28;20056;-74
2022/02/24 02:30:33;;;;;;;0.20;0.10;;;;;;;10.88;90.83;100720.03;2094796;28;20064;-74
2022/02/24 02:31:56;;;;;;;0.20;0.10;;;;;;;10.84;91.52;100726.13;2109297;28;20451;-74
2022/02/24 02:33:19;;;;;;;2.40;1.05;;;;;;;10.82;91.67;100719.94;2097164;28;20056;-74
2022/02/24 02:34:40;;;;;;;2.50;1.30;;;;;;;10.80;91.42;100724.31;2094567;28;20040;-74
2022/02/24 02:36:05;;;;;;;4.13;1.77;;;;;;;10.78;91.37;100712.84;2102567;28;20397;-74
2022/02/24 02:37:26;;;;;;;4.15;1.30;;;;;;;10.77;91.56;100722.50;2093284;28;20040;-74
2022/02/24 02:38:49;;;;;;;3.85;1.20;;;;;;;10.80;91.59;100716.38;2107205;28;20126;-74
2022/02/24 02:40:12;;;;;;;1.65;0.65;;;;;;;10.83;91.35;100716.41;2101822;28;20048;-74
2022/02/24 02:41:34;;;;;;;3.85;1.35;;;;;;;10.86;91.50;100711.19;2102799;28;20048;-74
2022/02/24 02:42:56;;;;;;;5.38;2.13;;;;;;;10.88;91.78;100711.22;2103299;28;20039;-74
2022/02/24 02:44:17;;;;;;;3.85;1.55;;;;;;;10.89;91.85;100711.25;2102630;28;20055;-74
2022/02/24 02:45:40;;;;;;;4.65;1.70;;;;;;;10.90;92.10;100707.72;2102742;28;20048;-74
2022/02/24 02:47:02;;;;;;;1.73;0.22;;;;;;;10.93;92.38;100710.41;2098664;28;20489;-74
2022/02/24 02:48:24;;;;;;;3.08;1.17;;;;;;;10.95;92.44;100708.69;2105517;28;20040;-74
2022/02/24 02:49:46;;;;;;;0.57;0.50;;;;;;;10.97;92.06;100703.41;2097064;28;20135;-74
2022/02/24 02:51:10;;;;;;;0.35;0.17;;;;;;;10.99;92.29;100712.25;2099912;28;20131;-74
2022/02/24 02:52:32;;;;;;;1.50;0.38;;;;;;;10.96;92.07;100704.28;2107627;28;20085;-73
2022/02/24 02:53:55;;;;;;;0.17;0.13;;;;;;;10.98;92.07;100710.47;2094176;28;20094;-74
2022/02/24 02:55:17;;;;;;;2.45;0.50;;;;;;;10.99;92.07;100713.13;2100278;28;20183;-74
2022/02/24 02:56:40;;;;;;;0.80;0.30;;;;;;;11.01;92.11;100708.75;2102717;28;20417;-74
2022/02/24 02:58:02;;;;;;;0.25;0.10;;;;;;;11.03;92.70;100709.66;2085786;28;20416;-74
2022/02/24 02:59:24;;;;;;;0.50;0.20;;;;;;;11.03;92.01;100708.75;2092270;28;20091;-74
2022/02/24 03:00:46;;;;;;;1.45;0.30;;;;;;;11.03;92.50;100707.00;2086003;28;20052;-74
2022/02/24 03:02:10;;;;;;;0.10;0.10;;;;;;;11.05;92.37;100707.03;2102935;28;20063;-74
2022/02/24 03:03:32;;;;;;;3.22;0.20;;;;;;;11.07;92.63;100698.28;2102834;28;20048;-74
2022/02/24 03:04:54;;;;;;;0.10;0.10;;;;;;;11.07;92.19;100703.56;2102501;28;20109;-74
2022/02/24 03:06:18;;;;;;;0.82;0.28;;;;;;;11.08;92.36;100705.34;2094160;28;20075;-75
2022/02/24 03:07:41;;;;;;;0.20;0.10;;;;;;;11.06;92.64;100708.81;2091672;28;20132;-74
2022/02/24 03:09:03;;;;;;;0.00;0.00;;;;;;;11.06;92.35;100708.81;2092028;28;20068;-74
2022/02/24 03:10:26;;;;;;;0.10;0.10;;;;;;;11.07;92.32;100702.66;2094319;28;20043;-74
2022/02/24 03:11:49;;;;;;;0.52;0.20;;;;;;;11.09;92.90;100698.31;2100220;28;20478;-74
2022/02/24 03:13:10;;;;;;;1.20;0.00;;;;;;;11.11;92.89;100701.81;2097193;28;20142;-74
2022/02/24 03:14:35;;;;;;;0.77;0.77;;;;;;;11.14;92.41;100702.75;2091429;28;20040;-74
2022/02/24 03:15:57;;;;;;;0.40;0.20;;;;;;;11.19;93.17;100702.81;2100241;28;20099;-75
2022/02/24 03:17:22;;;;;;;0.20;0.10;;;;;;;11.20;92.71;100701.94;2094187;28;20051;-74
2022/02/24 03:18:44;;;;;;;0.45;0.03;;;;;;;11.21;92.51;100697.56;2108972;28;20051;-74
2022/02/24 03:20:09;;;;;;;0.80;0.30;;;;;;;11.25;93.04;100702.00;2096873;28;20170;-74
2022/02/24 03:21:33;;;;;;;0.43;0.20;;;;;;;11.29;93.16;100693.25;2094722;28;20045;-74
2022/02/24 03:22:55;;;;;;;0.38;0.15;;;;;;;11.25;93.39;100692.31;2100311;28;20051;-74
2022/02/24 03:24:17;;;;;;;1.55;0.68;;;;;;;11.21;92.65;100692.28;2111061;28;20175;-74
2022/02/24 03:25:39;;;;;;;0.10;0.10;;;;;;;11.19;93.02;100689.59;2096982;28;20488;-74
2022/02/24 03:27:01;;;;;;;0.47;0.20;;;;;;;11.18;92.41;100690.47;2090940;28;20387;-74
2022/02/24 03:28:24;;;;;;;0.95;0.10;;;;;;;11.17;92.60;100684.28;2094251;28;20051;-74
2022/02/24 03:29:46;;;;;;;0.22;0.10;;;;;;;11.16;93.35;100679.88;2094302;28;20127;-74
2022/02/24 03:31:09;;;;;;;2.70;0.25;;;;;;;11.19;93.05;100679.91;2094243;28;20082;-73
2022/02/24 03:32:31;;;;;;;0.10;0.00;;;;;;;11.22;93.34;100675.56;2094234;28;20051;-74
2022/02/24 03:33:56;;;;;;;0.73;0.10;;;;;;;11.24;93.21;100677.31;2094109;28;20045;-74
2022/02/24 03:35:21;;;;;;;0.13;0.10;;;;;;;11.24;92.89;100669.41;2097861;28;20033;-74
2022/02/24 03:36:47;;;;;;;1.38;0.20;;;;;;;11.25;93.45;100679.09;2103584;28;20052;-74
2022/02/24 03:38:10;;;;;;;0.35;0.10;;;;;;;11.23;93.04;100679.94;2096864;28;20049;-74
2022/02/24 03:39:32;;;;;;;0.20;0.10;;;;;;;11.24;93.07;100679.06;2101056;28;20457;-74
2022/02/24 03:40:55;;;;;;;0.20;0.17;;;;;;;11.24;92.84;100677.31;2103575;28;20131;-74
2022/02/24 03:42:17;;;;;;;1.02;0.32;;;;;;;11.25;92.97;100689.66;2111080;28;20039;-75
2022/02/24 03:43:40;;;;;;;0.43;0.10;;;;;;;11.26;92.99;100690.56;2094313;28;20478;-75
2022/02/24 03:45:04;;;;;;;0.77;0.50;;;;;;;11.31;93.42;100689.75;2108658;28;20508;-75
2022/02/24 03:46:26;;;;;;;1.48;0.88;;;;;;;11.35;93.38;100685.38;2105606;28;20052;-74
2022/02/24 03:47:49;;;;;;;3.00;1.52;;;;;;;11.37;93.58;100694.19;2103503;28;20075;-74
2022/02/24 03:49:11;;;;;;;1.67;0.80;;;;;;;11.38;93.29;100690.69;2096622;28;20036;-74
2022/02/24 03:50:35;;;;;;;1.27;0.73;;;;;;;11.39;93.79;100697.75;2094411;28;20128;-74
2022/02/24 03:51:59;;;;;;;0.95;0.60;;;;;;;11.40;93.86;100695.13;2094076;28;20052;-74
2022/02/24 03:53:20;;;;;;;2.95;1.17;;;;;;;11.39;93.37;100698.66;2086013;28;20045;-74
2022/02/24 03:54:44;;;;;;;4.40;1.10;;;;;;;11.41;93.83;100696.03;2096126;28;20044;-75
2022/02/24 03:56:06;;;;;;;1.90;0.90;;;;;;;11.38;94.01;100698.63;2086126;28;20072;-73
2022/02/24 03:57:29;;;;;;;12.60;4.68;;;;;;;11.37;94.00;100700.38;2099729;28;20489;-74
2022/02/24 03:58:51;;;;;;;1.98;1.00;;;;;;;11.39;93.77;100703.03;2093969;28;20052;-74
2022/02/24 04:00:15;;;;;;;4.28;1.90;;;;;;;11.44;94.12;100714.53;2094251;28;20078;-74
2022/02/24 04:01:38;;;;;;;5.38;2.80;;;;;;;11.45;94.33;100713.69;2094158;28;20060;-74
2022/02/24 04:02:59;;;;;;;10.60;4.28;;;;;;;11.46;94.26;100718.09;2102284;28;20062;-74
2022/02/24 04:04:22;;;;;;;7.65;3.30;;;;;;;11.46;93.63;100723.38;2102407;28;20151;-73
2022/02/24 04:05:44;;;;;;;8.52;4.22;;;;;;;11.47;93.91;100723.41;2094490;28;20131;-74
2022/02/24 04:07:09;;;;;;;7.70;3.85;;;;;;;11.51;93.57;100727.84;2093739;28;20052;-74
2022/02/24 04:08:32;;;;;;;15.02;6.90;;;;;;;11.49;94.17;100721.66;2097265;28;20048;-73
2022/02/24 04:09:53;;;;;;;7.65;4.13;;;;;;;11.53;93.78;100727.88;2097286;28;20054;-74
2022/02/24 04:11:16;;;;;;;4.10;2.17;;;;;;;11.51;94.13;100726.97;2091115;28;20721;-73
2022/02/24 04:12:38;;;;;;;1.67;0.70;;;;;;;11.46;94.35;100720.75;2091313;28;20124;-74
2022/02/24 04:14:01;;;;;;;1.92;0.98;;;;;;;11.44;93.76;100717.19;2091368;28;20459;-74
2022/02/24 04:15:24;;;;;;;2.67;1.23;;;;;;;11.42;93.56;100717.16;2093609;28;20471;-74
2022/02/24 04:16:46;;;;;;;2.78;0.90;;;;;;;11.44;94.17;100725.13;2093707;28;20132;-74
2022/02/24 04:18:09;;;;;;;1.33;0.70;;;;;;;11.41;94.36;100718.06;2108155;28;20515;-75
2022/02/24 04:19:30;;;;;;;5.43;0.98;;;;;;;11.42;94.31;100717.16;2104934;28;20150;-74
2022/02/24 04:20:53;;;;;;;16.30;7.10;;;;;;;11.43;93.82;100721.59;2096536;28;20051;-74
2022/02/24 04:22:17;;;;;;;4.47;2.08;;;;;;;11.47;94.01;100727.81;2097457;28;20036;-74
2022/02/24 04:23:40;;;;;;;4.28;2.42;;;;;;;11.48;94.36;100719.00;2099913;28;20371;-74
2022/02/24 04:25:03;;;;;;;12.43;5.38;;;;;;;11.51;94.53;100734.91;2102384;28;20045;-74
2022/02/24 04:26:25;;;;;;;30.25;12.65;;;;;;;11.51;94.32;100732.25;2093651;28;20425;-74
2022/02/24 04:27:48;;;;;;;20.95;8.85;;;;;;;11.53;94.51;100728.75;2093901;28;20589;-74
2022/02/24 04:29:10;;;;;;;11.00;5.38;;;;;;;11.55;94.84;100736.72;2105796;28;20047;-74
2022/02/24 04:30:33;;;;;;;6.03;2.75;;;;;;;11.55;94.98;100724.34;2110768;28;20453;-74
2022/02/24 04:31:55;;;;;;;3.08;1.30;;;;;;;11.55;95.04;100721.72;2119149;28;20043;-74
2022/02/24 04:33:18;;;;;;;2.17;0.52;;;;;;;11.53;94.53;100723.47;2113444;28;20043;-74
2022/02/24 04:34:39;;;;;;;0.93;0.30;;;;;;;11.47;94.63;100725.16;2108245;28;20096;-73
2022/02/24 04:36:02;;;;;;;1.55;0.20;;;;;;;11.45;94.17;100718.97;2093744;28;20044;-73
2022/02/24 04:37:26;;;;;;;1.15;0.30;;;;;;;11.43;94.42;100715.41;2091189;28;20195;-74
2022/02/24 04:38:49;;;;;;;0.73;0.30;;;;;;;11.42;94.56;100718.94;2092771;28;20076;-74
2022/02/24 04:40:13;;;;;;;0.60;0.22;;;;;;;11.45;94.16;100718.97;2092078;28;20052;-74
2022/02/24 04:41:36;;;;;;;1.63;0.28;;;;;;;11.46;95.08;100718.09;2089469;28;20652;-74
2022/02/24 04:42:59;;;;;;;3.03;0.20;;;;;;;11.49;94.43;100718.13;2095531;28;20520;-74
2022/02/24 04:44:21;;;;;;;1.25;0.28;;;;;;;11.52;94.67;100723.47;2098103;28;20175;-73
2022/02/24 04:45:44;;;;;;;0.63;0.20;;;;;;;11.53;94.32;100722.59;2097966;28;20075;-74
2022/02/24 04:47:07;;;;;;;1.92;0.30;;;;;;;11.55;94.95;100718.22;2092845;28;20135;-74
2022/02/24 04:48:29;;;;;;;1.40;0.30;;;;;;;11.56;95.19;100718.22;2100945;28;20086;-74
2022/02/24 04:49:52;;;;;;;0.05;0.00;;;;;;;11.58;95.02;100719.13;2095407;28;20067;-73
2022/02/24 04:51:14;;;;;;;0.38;0.17;;;;;;;11.58;94.67;100719.13;2095631;28;20505;-74
2022/02/24 04:52:40;;;;;;;1.88;0.50;;;;;;;11.61;94.73;100726.22;2086764;28;20041;-74
2022/02/24 04:54:02;;;;;;;1.02;0.70;;;;;;;11.58;94.87;100721.75;2099986;28;20146;-74
2022/02/24 04:55:24;;;;;;;2.28;0.85;;;;;;;11.61;95.18;100723.56;2103589;28;20040;-73
2022/02/24 04:56:46;;;;;;;9.75;6.30;;;;;;;11.60;95.29;100721.78;2086842;28;20057;-74
2022/02/24 04:58:09;;;;;;;19.50;14.30;;;;;;;11.58;95.11;100719.13;2092501;28;20102;-74
2022/02/24 04:59:31;;;;;;;16.25;9.40;;;;;;;11.60;95.38;100719.16;2087104;28;20080;-74
2022/02/24 05:00:54;;;;;;;15.05;8.45;;;;;;;11.62;95.43;100721.81;2087278;28;20083;-74
2022/02/24 05:02:16;;;;;;;6.72;3.75;;;;;;;11.65;95.64;100722.72;2092791;28;20061;-74
2022/02/24 05:03:39;;;;;;;5.20;3.08;;;;;;;11.67;94.99;100713.06;2095075;28;20045;-74
2022/02/24 05:05:01;;;;;;;5.25;3.17;;;;;;;11.68;95.62;100722.75;2103543;28;20146;-74
2022/02/24 05:06:24;;;;;;;3.00;1.75;;;;;;;11.66;95.76;100729.78;2089820;28;20052;-74
2022/02/24 05:07:48;;;;;;;2.40;1.08;;;;;;;11.70;95.51;100723.63;2100861;28;20048;-73
2022/02/24 05:09:11;;;;;;;1.95;1.08;;;;;;;11.70;95.81;100726.28;2089644;28;20124;-73
2022/02/24 05:10:32;;;;;;;2.03;0.90;;;;;;;11.72;95.38;100715.72;2095309;28;20378;-73
2022/02/24 05:11:55;;;;;;;1.20;0.70;;;;;;;11.72;95.72;100718.38;2094748;28;20127;-74
2022/02/24 05:13:17;;;;;;;0.80;0.40;;;;;;;11.73;96.18;100715.75;2087095;28;20571;-74
2022/02/24 05:14:40;;;;;;;2.15;0.60;;;;;;;11.72;95.57;100716.63;2092819;28;20121;-73
2022/02/24 05:16:03;;;;;;;3.75;0.65;;;;;;;11.73;95.50;100728.97;2095210;28;20064;-74
2022/02/24 05:17:25;;;;;;;1.05;0.50;;;;;;;11.70;95.88;100725.41;2078780;28;20042;-73
2022/02/24 05:18:48;;;;;;;0.68;0.32;;;;;;;11.68;95.65;100725.41;2092535;28;20572;-73
2022/02/24 05:20:12;;;;;;;2.08;0.60;;;;;;;11.73;96.10;100734.28;2089693;28;20075;-73
2022/02/24 05:21:35;;;;;;;0.88;0.40;;;;;;;11.73;95.97;100723.69;2093486;28;21402;-73
2022/02/24 05:22:59;;;;;;;1.45;0.70;;;;;;;11.77;95.92;100728.16;2095346;28;20684;-73
2022/02/24 05:24:22;;;;;;;4.50;1.00;;;;;;;11.80;96.33;100724.66;2086988;28;20591;-74
2022/02/24 05:25:44;;;;;;;1.50;0.90;;;;;;;11.80;95.76;100719.38;2086523;28;20049;-74
2022/02/24 05:27:07;;;;;;;1.88;0.68;;;;;;;11.83;95.98;100722.03;2091681;28;20047;-74
2022/02/24 05:28:28;;;;;;;8.13;4.38;;;;;;;11.85;96.09;100723.84;2087170;28;20088;-73
2022/02/24 05:29:51;;;;;;;9.43;5.75;;;;;;;11.87;95.80;100724.75;2094798;28;20048;-74
2022/02/24 05:31:13;;;;;;;4.68;2.42;;;;;;;11.91;96.36;100726.53;2083848;28;20108;-73
2022/02/24 05:32:36;;;;;;;2.97;1.67;;;;;;;11.94;96.01;100730.97;2100527;28;20040;-73
2022/02/24 05:33:57;;;;;;;4.13;1.50;;;;;;;11.92;96.03;100732.72;2091859;28;20045;-73
2022/02/24 05:35:19;;;;;;;3.67;0.82;;;;;;;11.93;96.01;100737.13;2094914;28;20048;-73
2022/02/24 05:36:43;;;;;;;1.40;0.77;;;;;;;11.92;96.41;100725.66;2090138;28;20033;-73
2022/02/24 05:38:07;;;;;;;1.00;0.50;;;;;;;11.96;96.47;100735.41;2105511;28;20059;-73
2022/02/24 05:39:30;;;;;;;0.75;0.30;;;;;;;11.97;96.34;100731.88;2104041;28;20093;-73
2022/02/24 05:40:52;;;;;;;2.30;0.70;;;;;;;11.98;96.81;100738.06;2103577;28;20048;-73
2022/02/24 05:42:14;;;;;;;0.57;0.40;;;;;;;12.00;96.73;100733.69;2097126;28;20072;-73
2022/02/24 05:43:36;;;;;;;0.77;0.40;;;;;;;12.00;96.36;100730.16;2100570;28;20040;-73
2022/02/24 05:44:59;;;;;;;2.15;0.50;;;;;;;12.00;96.52;100736.34;2103412;28;20135;-73
2022/02/24 05:46:21;;;;;;;0.52;0.43;;;;;;;11.99;96.63;100731.91;2102902;28;20036;-73
2022/02/24 05:47:44;;;;;;;0.80;0.47;;;;;;;11.98;96.40;100736.31;2094930;28;20044;-73
2022/02/24 05:49:07;;;;;;;0.80;0.60;;;;;;;11.98;96.91;100743.34;2086893;28;20080;-74
2022/02/24 05:50:30;;;;;;;4.93;1.65;;;;;;;12.01;96.96;100742.50;2086608;28;20049;-74
2022/02/24 05:51:51;;;;;;;8.45;6.35;;;;;;;12.01;96.51;100745.16;2104595;28;20551;-74
2022/02/24 05:53:15;;;;;;;7.30;5.20;;;;;;;12.04;96.35;100748.69;2094775;28;20056;-74
2022/02/24 05:54:38;;;;;;;6.72;4.32;;;;;;;12.08;96.56;100747.84;2100845;28;20106;-73
2022/02/24 05:56:01;;;;;;;7.10;4.32;;;;;;;12.13;96.59;100753.19;2103055;28;20043;-73
2022/02/24 05:57:23;;;;;;;4.60;3.05;;;;;;;12.17;97.05;100752.34;2096950;28;20048;-73
2022/02/24 05:58:46;;;;;;;5.75;3.75;;;;;;;12.22;97.02;100751.50;2092377;28;20123;-73
2022/02/24 06:00:10;;;;;;;4.70;2.80;;;;;;;12.26;96.91;100752.44;2103037;28;20048;-73
2022/02/24 06:01:35;;;;;;;5.00;2.65;;;;;;;12.32;96.70;100750.72;2103587;28;20105;-73
2022/02/24 06:02:58;;;;;;;8.02;4.15;;;;;;;12.38;97.13;100755.19;2103303;28;20134;-73
2022/02/24 06:04:25;;;;;;;4.90;2.33;;;;;;;12.41;96.71;100759.59;2094762;28;20032;-73
2022/02/24 06:05:47;;;;;;;8.82;2.75;;;;;;;12.39;96.78;100751.66;2097234;28;20059;-73
2022/02/24 06:07:10;;;;;;;4.65;2.67;;;;;;;12.39;96.62;100754.31;2092029;28;20053;-73
2022/02/24 06:08:34;;;;;;;4.13;2.50;;;;;;;12.41;96.75;100759.59;2100369;28;20451;-74
2022/02/24 06:09:56;;;;;;;4.25;2.30;;;;;;;12.38;96.49;100763.13;2094686;28;20040;-74
2022/02/24 06:11:19;;;;;;;5.25;1.92;;;;;;;12.36;96.56;100760.47;2100633;28;20085;-74
2022/02/24 06:12:41;;;;;;;5.95;2.17;;;;;;;12.37;96.82;100764.00;2102994;28;20143;-74
2022/02/24 06:14:03;;;;;;;;;;;;;;;12.38;97.08;100755.19;2103073;28;20074;-74
2022/02/24 06:15:26;;;;;;;3.67;1.30;;;;;;;12.36;96.89;100765.75;2103201;28;20297;-74
2022/02/24 06:16:49;;;;;;;3.75;1.60;;;;;;;12.35;96.98;100763.97;2094479;28;20048;-73
2022/02/24 06:18:16;;;;;;;4.60;2.40;;;;;;;12.36;97.00;100762.22;2100215;28;20048;-74
2022/02/24 06:19:39;;;;;;;4.18;2.22;;;;;;;12.37;97.06;100761.34;2103716;28;20052;-73
2022/02/24 06:21:02;;;;;;;13.95;7.75;;;;;;;12.38;96.78;100769.31;2094842;28;20126;-74
2022/02/24 06:22:24;;;;;;;23.17;10.63;;;;;;;12.42;97.13;100767.56;2090842;28;20513;-74
2022/02/24 06:23:49;;;;;;;22.27;12.25;;;;;;;12.47;97.38;100771.13;2100172;28;20120;-74
2022/02/24 06:25:11;;;;;;;40.00;19.17;;;;;;;12.50;96.85;100770.28;2094915;28;20170;-74